Flight Track Log - Related Links

Times and Time Zones

All times are in EDT time to prevent confusion due to time zone crossing. See the AWI3778 flight status page for this flight to view local times or setup timezone preferences in your user account.

Time Position Orientation Groundspeed Altitude Reporting Facility
EDT Latitude Longitude Course Direction KTS MPH feet Rate Location/Type
Sun 01:52:54 PM 44.3031 -73.0986 194° South 273 314 6,100  Level Boston Center
Sun 01:53:54 PM 44.2261 -73.0892 175° South 285 328 8,300 2,150 Climbing Boston Center
Sun 01:54:54 PM 44.1550 -73.1258 200° South 280 322 10,400 2,100 Climbing Boston Center
Sun 01:55:54 PM 44.0778 -73.1656 200° South 288 331 12,500 1,800 Climbing Boston Center
Sun 01:56:00 PM 43.7708 -73.4144 195° South  Level FlightAware Approximate
Sun 01:56:54 PM 44.0003 -73.2050 200° South 293 337 14,000  Level Boston Center
Sun 01:57:00 PM 43.6711 -73.4511 195° South  Level FlightAware Approximate
Sun 01:57:54 PM 43.9064 -73.2497 199° South 316 364 16,000  Level Boston Center
Sun 01:58:00 PM 43.5713 -73.4874 194° South  Level FlightAware Approximate
Sun 01:58:54 PM 43.8206 -73.2947 201° Southwest 327 376 17,500  Level Boston Center
Sun 01:59:54 PM 43.7328 -73.3453 203° Southwest 337 388 18,500 1,150 Climbing Boston Center
Sun 02:00:54 PM 43.6569 -73.4186 215° Southwest 337 388 19,800 1,250 Climbing Boston Center
Sun 02:01:54 PM 43.5814 -73.5006 218° Southwest 343 395 21,000 1,100 Climbing Boston Center
Sun 02:02:54 PM 43.5033 -73.5850 218° Southwest 348 400 22,000 950 Climbing Boston Center
Sun 02:03:54 PM 43.4253 -73.6694 218° Southwest 348 400 22,900 850 Climbing Boston Center
Sun 02:04:54 PM 43.3453 -73.7533 217° Southwest 354 407 23,700 550 Climbing Boston Center
Sun 02:05:54 PM 43.2672 -73.8400 219° Southwest 354 407 24,000 150 Climbing Boston Center
Sun 02:06:54 PM 43.1828 -73.9264 217° Southwest 372 428 24,000  Level Boston Center
Sun 02:07:54 PM 43.1044 -74.0097 218° Southwest 372 428 24,000  Level Boston Center
Sun 02:08:54 PM 43.0242 -74.0931 217° Southwest 372 428 24,000  Level Boston Center
Sun 02:09:54 PM 42.9436 -74.1758 217° Southwest 372 428 24,000  Level Boston Center
Sun 02:10:54 PM 42.8608 -74.2642 218° Southwest 372 428 24,000  Level Boston Center
Sun 02:11:54 PM 42.7825 -74.3467 218° Southwest 372 428 24,000  Level Boston Center
Sun 02:12:54 PM 42.6997 -74.4289 216° Southwest 377 434 24,000  Level Boston Center
Sun 02:13:54 PM 42.6169 -74.5139 217° Southwest 377 434 24,000  Level Boston Center
Sun 02:14:54 PM 42.5319 -74.5983 216° Southwest 377 434 24,000  Level Boston Center
Sun 02:15:54 PM 42.4492 -74.6856 218° Southwest 377 434 24,000 -34 Level Boston Center
Sun 02:17:52 PM 42.2947 -74.8414 217° Southwest 379 436 23,900 -503 Descending New York Center
Sun 02:18:53 PM 42.2131 -74.9203 216° Southwest 379 436 22,500 -1,377 Descending New York Center
Sun 02:19:54 PM 42.1247 -75.0042 215° Southwest 372 428 21,100 -1,361 Descending New York Center
Sun 02:20:52 PM 42.0369 -75.0739 211° Southwest 372 428 19,800 -1,068 Descending New York Center
Sun 02:21:52 PM 41.9511 -75.1464 212° Southwest 372 428 19,000 -397 Descending New York Center
Sun 02:22:53 PM 41.8736 -75.2108 212° Southwest 372 428 19,000 -353 Level New York Center
Sun 02:23:51 PM 41.7836 -75.2828 211° Southwest 377 434 18,300 -1,250 Descending New York Center
Sun 02:24:53 PM 41.6867 -75.3622 211° Southwest 377 434 16,500 -1,700 Descending New York Center
Sun 02:25:51 PM 41.5986 -75.4311 210° Southwest 377 434 14,900 -1,664 Descending New York Center
Sun 02:26:52 PM 41.5211 -75.4950 212° Southwest 377 434 13,200 -1,426 Descending New York Center
Sun 02:27:53 PM 41.4372 -75.5611 211° Southwest 369 425 12,000 -605 Descending New York Center
Sun 02:28:51 PM 41.3492 -75.6294 210° Southwest 348 400 12,000  Level New York Center
Sun 02:29:51 PM 41.2656 -75.6842 206° Southwest 348 400 12,000  Level New York Center
Sun 02:30:52 PM 41.1739 -75.6886 182° South 326 375 12,000  Level New York Center
Sun 02:31:53 PM 41.0822 -75.6872 179° South 331 381 12,000  Level New York Center
Sun 02:32:51 PM 40.9864 -75.6886 181° South 331 381 12,000  Level New York Center
Sun 02:33:54 PM 40.9033 -75.6828 177° South 336 387 12,000  Level New York Center
Sun 02:34:51 PM 40.8156 -75.6353 158° South 336 387 12,000  Level New York Center
Sun 02:35:52 PM 40.7178 -75.5817 157° South 344 396 12,000 -393 Level New York Center
Sun 02:36:53 PM 40.6403 -75.5381 157° South 349 402 11,200 -893 Descending New York Center
Sun 02:37:53 PM 40.5631 -75.4944 157° South 333 383 10,200 -605 Descending New York Center
Sun 02:38:52 PM 40.4894 -75.4539 157° South 300 345 10,000 -101 Descending New York Center
Sun 02:39:52 PM 40.4056 -75.4153 161° South 286 329 10,000 -639 Level New York Center
Sun 02:40:54 PM 40.3344 -75.4214 184° South 268 308 8,700 -1,513 Descending New York Center
Sun 02:41:51 PM 40.2614 -75.4275 184° South 268 308 7,000 -1,385 Descending New York Center
Sun 02:42:51 PM 40.2000 -75.3936 157° South 268 308 6,000 -1,328 Descending New York Center
Sun 02:43:53 PM 40.1167 -75.3500 158° South 259 298 4,300 -1,623 Descending Philadelphia TRACON
Sun 02:44:53 PM 40.0500 -75.3167 159° South 254 292 2,700 -1,600 Descending Philadelphia TRACON

Login

Don't have an account? Register now (free) for customized features, flight alerts, and more!